sensor_id;sensor_type;location;lat;lon;timestamp;P1;durP1;ratioP1;P2;durP2;ratioP2
4222;SDS011;2125;51.436;14.138;2022-08-21T00:02:15;59.00;;;28.90;;
4222;SDS011;2125;51.436;14.138;2022-08-21T00:04:42;60.17;;;30.00;;
4222;SDS011;2125;51.436;14.138;2022-08-21T00:07:09;60.73;;;30.57;;
4222;SDS011;2125;51.436;14.138;2022-08-21T00:09:37;57.80;;;29.37;;
4222;SDS011;2125;51.436;14.138;2022-08-21T00:12:04;59.87;;;31.07;;
4222;SDS011;2125;51.436;14.138;2022-08-21T00:14:31;65.50;;;31.60;;
4222;SDS011;2125;51.436;14.138;2022-08-21T00:16:59;61.97;;;31.63;;
4222;SDS011;2125;51.436;14.138;2022-08-21T00:19:26;61.90;;;29.20;;
4222;SDS011;2125;51.436;14.138;2022-08-21T00:21:53;56.80;;;30.07;;
4222;SDS011;2125;51.436;14.138;2022-08-21T00:24:21;62.27;;;31.27;;
4222;SDS011;2125;51.436;14.138;2022-08-21T00:26:50;58.40;;;30.30;;
4222;SDS011;2125;51.436;14.138;2022-08-21T00:29:17;58.90;;;31.20;;
4222;SDS011;2125;51.436;14.138;2022-08-21T00:31:44;60.00;;;30.13;;
4222;SDS011;2125;51.436;14.138;2022-08-21T00:34:12;59.80;;;30.47;;
4222;SDS011;2125;51.436;14.138;2022-08-21T00:36:39;62.27;;;29.27;;
4222;SDS011;2125;51.436;14.138;2022-08-21T00:39:07;59.53;;;30.43;;
4222;SDS011;2125;51.436;14.138;2022-08-21T00:41:35;57.53;;;30.97;;
4222;SDS011;2125;51.436;14.138;2022-08-21T00:44:04;59.13;;;30.53;;
4222;SDS011;2125;51.436;14.138;2022-08-21T00:46:31;60.53;;;30.80;;
4222;SDS011;2125;51.436;14.138;2022-08-21T00:48:58;70.33;;;30.93;;
4222;SDS011;2125;51.436;14.138;2022-08-21T00:51:25;57.27;;;30.00;;
4222;SDS011;2125;51.436;14.138;2022-08-21T00:53:59;55.83;;;30.13;;
4222;SDS011;2125;51.436;14.138;2022-08-21T00:56:27;59.93;;;30.27;;
4222;SDS011;2125;51.436;14.138;2022-08-21T00:58:55;58.30;;;30.37;;
4222;SDS011;2125;51.436;14.138;2022-08-21T01:01:24;59.07;;;31.43;;
4222;SDS011;2125;51.436;14.138;2022-08-21T01:03:52;59.80;;;30.27;;
4222;SDS011;2125;51.436;14.138;2022-08-21T01:06:19;60.87;;;29.87;;
4222;SDS011;2125;51.436;14.138;2022-08-21T01:08:46;61.77;;;30.00;;
4222;SDS011;2125;51.436;14.138;2022-08-21T01:11:13;57.40;;;30.23;;
4222;SDS011;2125;51.436;14.138;2022-08-21T01:13:40;58.40;;;29.50;;
4222;SDS011;2125;51.436;14.138;2022-08-21T01:16:10;60.83;;;30.27;;
4222;SDS011;2125;51.436;14.138;2022-08-21T01:18:40;56.80;;;30.20;;
4222;SDS011;2125;51.436;14.138;2022-08-21T01:21:11;62.10;;;31.07;;
4222;SDS011;2125;51.436;14.138;2022-08-21T01:23:41;64.23;;;31.00;;
4222;SDS011;2125;51.436;14.138;2022-08-21T01:26:09;62.60;;;30.00;;
4222;SDS011;2125;51.436;14.138;2022-08-21T01:28:37;62.80;;;30.60;;
4222;SDS011;2125;51.436;14.138;2022-08-21T01:31:07;60.33;;;30.13;;
4222;SDS011;2125;51.436;14.138;2022-08-21T01:33:38;58.40;;;30.47;;
4222;SDS011;2125;51.436;14.138;2022-08-21T01:36:04;56.67;;;29.27;;
4222;SDS011;2125;51.436;14.138;2022-08-21T01:38:33;62.70;;;30.37;;
4222;SDS011;2125;51.436;14.138;2022-08-21T01:41:00;56.53;;;30.77;;
4222;SDS011;2125;51.436;14.138;2022-08-21T01:43:26;56.03;;;30.00;;
4222;SDS011;2125;51.436;14.138;2022-08-21T01:45:53;61.10;;;29.30;;
4222;SDS011;2125;51.436;14.138;2022-08-21T01:48:19;59.00;;;29.57;;
4222;SDS011;2125;51.436;14.138;2022-08-21T01:50:46;61.20;;;30.77;;
4222;SDS011;2125;51.436;14.138;2022-08-21T01:53:13;54.60;;;29.90;;
4222;SDS011;2125;51.436;14.138;2022-08-21T01:55:41;61.23;;;31.10;;
4222;SDS011;2125;51.436;14.138;2022-08-21T01:58:08;59.13;;;30.50;;
4222;SDS011;2125;51.436;14.138;2022-08-21T02:00:35;61.90;;;30.60;;
4222;SDS011;2125;51.436;14.138;2022-08-21T02:03:01;59.63;;;31.40;;
4222;SDS011;2125;51.436;14.138;2022-08-21T02:05:28;59.70;;;30.57;;
4222;SDS011;2125;51.436;14.138;2022-08-21T02:07:55;55.63;;;28.90;;
4222;SDS011;2125;51.436;14.138;2022-08-21T02:10:22;59.63;;;29.63;;
4222;SDS011;2125;51.436;14.138;2022-08-21T02:12:55;59.53;;;29.60;;
4222;SDS011;2125;51.436;14.138;2022-08-21T02:15:23;58.80;;;30.10;;
4222;SDS011;2125;51.436;14.138;2022-08-21T02:17:51;57.10;;;29.70;;
4222;SDS011;2125;51.436;14.138;2022-08-21T02:20:21;56.57;;;28.93;;
4222;SDS011;2125;51.436;14.138;2022-08-21T02:22:50;58.83;;;29.47;;
4222;SDS011;2125;51.436;14.138;2022-08-21T02:25:17;62.00;;;31.07;;
4222;SDS011;2125;51.436;14.138;2022-08-21T02:27:47;67.97;;;31.63;;
4222;SDS011;2125;51.436;14.138;2022-08-21T02:30:17;61.43;;;30.07;;
4222;SDS011;2125;51.436;14.138;2022-08-21T02:32:45;61.17;;;29.90;;
4222;SDS011;2125;51.436;14.138;2022-08-21T02:35:12;55.63;;;28.70;;
4222;SDS011;2125;51.436;14.138;2022-08-21T02:37:43;58.60;;;27.73;;
4222;SDS011;2125;51.436;14.138;2022-08-21T02:40:12;60.97;;;30.03;;
4222;SDS011;2125;51.436;14.138;2022-08-21T02:42:39;67.77;;;30.73;;
4222;SDS011;2125;51.436;14.138;2022-08-21T02:45:06;63.33;;;29.40;;
4222;SDS011;2125;51.436;14.138;2022-08-21T02:47:35;58.63;;;29.73;;
4222;SDS011;2125;51.436;14.138;2022-08-21T02:50:02;57.70;;;27.47;;
4222;SDS011;2125;51.436;14.138;2022-08-21T02:52:29;59.60;;;29.73;;
4222;SDS011;2125;51.436;14.138;2022-08-21T02:54:56;55.47;;;29.37;;
4222;SDS011;2125;51.436;14.138;2022-08-21T02:57:22;57.57;;;28.70;;
4222;SDS011;2125;51.436;14.138;2022-08-21T02:59:49;51.60;;;27.87;;
4222;SDS011;2125;51.436;14.138;2022-08-21T03:02:15;51.10;;;25.50;;
4222;SDS011;2125;51.436;14.138;2022-08-21T03:04:43;47.27;;;24.80;;
4222;SDS011;2125;51.436;14.138;2022-08-21T03:07:10;47.03;;;25.90;;
4222;SDS011;2125;51.436;14.138;2022-08-21T03:09:37;55.53;;;26.47;;
4222;SDS011;2125;51.436;14.138;2022-08-21T03:12:03;43.30;;;24.57;;
4222;SDS011;2125;51.436;14.138;2022-08-21T03:14:30;48.33;;;24.70;;
4222;SDS011;2125;51.436;14.138;2022-08-21T03:16:57;45.83;;;24.93;;
4222;SDS011;2125;51.436;14.138;2022-08-21T03:19:24;48.03;;;25.43;;
4222;SDS011;2125;51.436;14.138;2022-08-21T03:21:51;48.73;;;25.60;;
4222;SDS011;2125;51.436;14.138;2022-08-21T03:24:18;45.17;;;24.73;;
4222;SDS011;2125;51.436;14.138;2022-08-21T03:26:45;46.80;;;24.90;;
4222;SDS011;2125;51.436;14.138;2022-08-21T03:29:11;42.30;;;25.20;;
4222;SDS011;2125;51.436;14.138;2022-08-21T03:31:38;43.77;;;24.97;;
4222;SDS011;2125;51.436;14.138;2022-08-21T03:34:05;43.50;;;25.53;;
4222;SDS011;2125;51.436;14.138;2022-08-21T03:36:32;43.13;;;22.93;;
4222;SDS011;2125;51.436;14.138;2022-08-21T03:39:00;43.90;;;23.53;;
4222;SDS011;2125;51.436;14.138;2022-08-21T03:41:27;39.93;;;23.00;;
4222;SDS011;2125;51.436;14.138;2022-08-21T03:43:53;41.00;;;23.53;;
4222;SDS011;2125;51.436;14.138;2022-08-21T03:46:20;43.63;;;22.60;;
4222;SDS011;2125;51.436;14.138;2022-08-21T03:48:46;44.53;;;23.73;;
4222;SDS011;2125;51.436;14.138;2022-08-21T03:51:13;43.53;;;22.80;;
4222;SDS011;2125;51.436;14.138;2022-08-21T03:53:40;41.33;;;21.50;;
4222;SDS011;2125;51.436;14.138;2022-08-21T03:56:08;38.87;;;22.57;;
4222;SDS011;2125;51.436;14.138;2022-08-21T03:58:35;40.80;;;22.13;;
4222;SDS011;2125;51.436;14.138;2022-08-21T04:01:04;39.47;;;21.67;;
4222;SDS011;2125;51.436;14.138;2022-08-21T04:03:33;36.17;;;19.63;;
4222;SDS011;2125;51.436;14.138;2022-08-21T04:06:01;34.87;;;19.43;;
4222;SDS011;2125;51.436;14.138;2022-08-21T04:08:28;33.97;;;20.57;;
4222;SDS011;2125;51.436;14.138;2022-08-21T04:10:57;38.80;;;19.23;;
4222;SDS011;2125;51.436;14.138;2022-08-21T04:13:26;34.87;;;20.40;;
4222;SDS011;2125;51.436;14.138;2022-08-21T04:15:54;36.00;;;20.77;;
4222;SDS011;2125;51.436;14.138;2022-08-21T04:18:21;41.63;;;18.80;;
4222;SDS011;2125;51.436;14.138;2022-08-21T04:20:48;35.10;;;21.30;;
4222;SDS011;2125;51.436;14.138;2022-08-21T04:23:17;35.67;;;20.30;;
4222;SDS011;2125;51.436;14.138;2022-08-21T04:25:45;37.53;;;20.80;;
4222;SDS011;2125;51.436;14.138;2022-08-21T04:28:12;35.00;;;19.47;;
4222;SDS011;2125;51.436;14.138;2022-08-21T04:30:40;36.60;;;20.37;;
4222;SDS011;2125;51.436;14.138;2022-08-21T04:33:06;36.30;;;19.80;;
4222;SDS011;2125;51.436;14.138;2022-08-21T04:35:33;35.03;;;20.83;;
4222;SDS011;2125;51.436;14.138;2022-08-21T04:38:00;33.33;;;19.07;;
4222;SDS011;2125;51.436;14.138;2022-08-21T04:40:27;38.57;;;19.00;;
4222;SDS011;2125;51.436;14.138;2022-08-21T04:42:55;36.93;;;20.80;;
4222;SDS011;2125;51.436;14.138;2022-08-21T04:45:25;33.20;;;19.90;;
4222;SDS011;2125;51.436;14.138;2022-08-21T04:47:55;39.67;;;19.97;;
4222;SDS011;2125;51.436;14.138;2022-08-21T04:50:24;35.57;;;20.60;;
4222;SDS011;2125;51.436;14.138;2022-08-21T04:52:54;39.50;;;21.43;;
4222;SDS011;2125;51.436;14.138;2022-08-21T04:55:21;34.60;;;20.40;;
4222;SDS011;2125;51.436;14.138;2022-08-21T04:57:52;37.33;;;19.60;;
4222;SDS011;2125;51.436;14.138;2022-08-21T05:00:20;31.80;;;19.80;;
4222;SDS011;2125;51.436;14.138;2022-08-21T05:02:49;33.77;;;19.37;;
4222;SDS011;2125;51.436;14.138;2022-08-21T05:05:20;31.43;;;19.33;;
4222;SDS011;2125;51.436;14.138;2022-08-21T05:07:47;32.60;;;18.67;;
4222;SDS011;2125;51.436;14.138;2022-08-21T05:10:15;34.70;;;18.97;;
4222;SDS011;2125;51.436;14.138;2022-08-21T05:12:42;34.60;;;19.43;;
4222;SDS011;2125;51.436;14.138;2022-08-21T05:15:09;33.30;;;19.23;;
4222;SDS011;2125;51.436;14.138;2022-08-21T05:17:37;30.87;;;19.00;;
4222;SDS011;2125;51.436;14.138;2022-08-21T05:20:04;32.80;;;19.30;;
4222;SDS011;2125;51.436;14.138;2022-08-21T05:22:33;30.80;;;18.37;;
4222;SDS011;2125;51.436;14.138;2022-08-21T05:24:59;46.07;;;18.83;;
4222;SDS011;2125;51.436;14.138;2022-08-21T05:27:26;34.90;;;20.27;;
4222;SDS011;2125;51.436;14.138;2022-08-21T05:29:54;30.93;;;20.03;;
4222;SDS011;2125;51.436;14.138;2022-08-21T05:32:21;34.07;;;20.20;;
4222;SDS011;2125;51.436;14.138;2022-08-21T05:34:48;35.57;;;20.27;;
4222;SDS011;2125;51.436;14.138;2022-08-21T05:37:15;37.87;;;20.37;;
4222;SDS011;2125;51.436;14.138;2022-08-21T05:39:43;30.10;;;19.13;;
4222;SDS011;2125;51.436;14.138;2022-08-21T05:42:09;37.20;;;20.00;;
4222;SDS011;2125;51.436;14.138;2022-08-21T05:44:37;36.27;;;21.00;;
4222;SDS011;2125;51.436;14.138;2022-08-21T05:47:04;32.70;;;20.63;;
4222;SDS011;2125;51.436;14.138;2022-08-21T05:49:31;36.90;;;21.00;;
4222;SDS011;2125;51.436;14.138;2022-08-21T05:51:58;35.30;;;20.40;;
4222;SDS011;2125;51.436;14.138;2022-08-21T05:54:24;36.20;;;20.87;;
4222;SDS011;2125;51.436;14.138;2022-08-21T05:56:53;41.10;;;21.20;;
4222;SDS011;2125;51.436;14.138;2022-08-21T05:59:19;34.40;;;21.57;;
4222;SDS011;2125;51.436;14.138;2022-08-21T06:01:46;35.07;;;21.30;;
4222;SDS011;2125;51.436;14.138;2022-08-21T06:04:13;34.70;;;21.00;;
4222;SDS011;2125;51.436;14.138;2022-08-21T06:06:41;36.73;;;22.17;;
4222;SDS011;2125;51.436;14.138;2022-08-21T06:09:07;34.60;;;20.83;;
4222;SDS011;2125;51.436;14.138;2022-08-21T06:11:34;32.10;;;21.03;;
4222;SDS011;2125;51.436;14.138;2022-08-21T06:14:02;31.13;;;20.80;;
4222;SDS011;2125;51.436;14.138;2022-08-21T06:16:31;35.30;;;20.67;;
4222;SDS011;2125;51.436;14.138;2022-08-21T06:18:58;30.97;;;20.90;;
4222;SDS011;2125;51.436;14.138;2022-08-21T06:21:24;32.93;;;20.23;;
4222;SDS011;2125;51.436;14.138;2022-08-21T06:23:51;32.63;;;20.03;;
4222;SDS011;2125;51.436;14.138;2022-08-21T06:26:17;27.00;;;18.73;;
4222;SDS011;2125;51.436;14.138;2022-08-21T06:28:45;27.97;;;17.63;;
4222;SDS011;2125;51.436;14.138;2022-08-21T06:31:14;27.43;;;18.33;;
4222;SDS011;2125;51.436;14.138;2022-08-21T06:33:42;26.03;;;16.70;;
4222;SDS011;2125;51.436;14.138;2022-08-21T06:36:09;27.63;;;17.33;;
4222;SDS011;2125;51.436;14.138;2022-08-21T06:38:35;27.87;;;17.67;;
4222;SDS011;2125;51.436;14.138;2022-08-21T06:41:03;27.37;;;17.40;;
4222;SDS011;2125;51.436;14.138;2022-08-21T06:43:30;27.80;;;17.53;;
4222;SDS011;2125;51.436;14.138;2022-08-21T06:45:56;25.53;;;15.50;;
4222;SDS011;2125;51.436;14.138;2022-08-21T06:48:24;25.77;;;16.20;;
4222;SDS011;2125;51.436;14.138;2022-08-21T06:50:51;23.60;;;15.40;;
4222;SDS011;2125;51.436;14.138;2022-08-21T06:53:19;22.80;;;15.73;;
4222;SDS011;2125;51.436;14.138;2022-08-21T06:55:47;24.00;;;14.77;;
4222;SDS011;2125;51.436;14.138;2022-08-21T06:58:14;22.73;;;13.80;;
4222;SDS011;2125;51.436;14.138;2022-08-21T07:00:42;21.17;;;14.40;;
4222;SDS011;2125;51.436;14.138;2022-08-21T07:03:15;23.17;;;14.60;;
4222;SDS011;2125;51.436;14.138;2022-08-21T07:05:45;21.20;;;14.50;;
4222;SDS011;2125;51.436;14.138;2022-08-21T07:08:12;23.03;;;14.57;;
4222;SDS011;2125;51.436;14.138;2022-08-21T07:10:38;19.23;;;13.90;;
4222;SDS011;2125;51.436;14.138;2022-08-21T07:13:05;24.70;;;14.23;;
4222;SDS011;2125;51.436;14.138;2022-08-21T07:15:32;19.80;;;13.60;;
4222;SDS011;2125;51.436;14.138;2022-08-21T07:17:59;19.67;;;12.97;;
4222;SDS011;2125;51.436;14.138;2022-08-21T07:20:26;22.27;;;13.20;;
4222;SDS011;2125;51.436;14.138;2022-08-21T07:22:54;15.53;;;11.60;;
4222;SDS011;2125;51.436;14.138;2022-08-21T07:25:22;17.83;;;12.63;;
4222;SDS011;2125;51.436;14.138;2022-08-21T07:27:48;22.57;;;14.63;;
4222;SDS011;2125;51.436;14.138;2022-08-21T07:30:15;24.97;;;13.50;;
4222;SDS011;2125;51.436;14.138;2022-08-21T07:32:41;17.30;;;13.80;;
4222;SDS011;2125;51.436;14.138;2022-08-21T07:35:08;20.90;;;13.53;;
4222;SDS011;2125;51.436;14.138;2022-08-21T07:37:36;17.40;;;12.47;;
4222;SDS011;2125;51.436;14.138;2022-08-21T07:40:04;20.97;;;11.13;;
4222;SDS011;2125;51.436;14.138;2022-08-21T07:42:32;19.90;;;11.37;;
4222;SDS011;2125;51.436;14.138;2022-08-21T07:44:58;15.20;;;10.97;;
4222;SDS011;2125;51.436;14.138;2022-08-21T07:47:27;20.33;;;11.60;;
4222;SDS011;2125;51.436;14.138;2022-08-21T07:49:54;18.70;;;10.67;;
4222;SDS011;2125;51.436;14.138;2022-08-21T07:52:20;18.17;;;9.87;;
4222;SDS011;2125;51.436;14.138;2022-08-21T07:54:47;15.07;;;10.50;;
4222;SDS011;2125;51.436;14.138;2022-08-21T07:57:15;16.53;;;10.10;;
4222;SDS011;2125;51.436;14.138;2022-08-21T07:59:41;21.90;;;11.30;;
4222;SDS011;2125;51.436;14.138;2022-08-21T08:02:08;18.07;;;10.40;;
4222;SDS011;2125;51.436;14.138;2022-08-21T08:04:34;12.50;;;8.93;;
4222;SDS011;2125;51.436;14.138;2022-08-21T08:07:01;15.70;;;8.53;;
4222;SDS011;2125;51.436;14.138;2022-08-21T08:09:28;12.83;;;7.33;;
4222;SDS011;2125;51.436;14.138;2022-08-21T08:11:55;10.37;;;7.50;;
4222;SDS011;2125;51.436;14.138;2022-08-21T08:14:23;15.57;;;6.67;;
4222;SDS011;2125;51.436;14.138;2022-08-21T08:16:51;13.93;;;6.23;;
4222;SDS011;2125;51.436;14.138;2022-08-21T08:19:17;9.70;;;6.60;;
4222;SDS011;2125;51.436;14.138;2022-08-21T08:21:44;11.00;;;6.53;;
4222;SDS011;2125;51.436;14.138;2022-08-21T08:24:10;13.57;;;6.43;;
4222;SDS011;2125;51.436;14.138;2022-08-21T08:26:37;16.57;;;6.93;;
4222;SDS011;2125;51.436;14.138;2022-08-21T08:29:04;11.73;;;6.60;;
4222;SDS011;2125;51.436;14.138;2022-08-21T08:31:32;11.93;;;6.43;;
4222;SDS011;2125;51.436;14.138;2022-08-21T08:33:58;7.00;;;5.93;;
4222;SDS011;2125;51.436;14.138;2022-08-21T08:36:31;9.30;;;5.97;;
4222;SDS011;2125;51.436;14.138;2022-08-21T08:38:59;9.67;;;6.00;;
4222;SDS011;2125;51.436;14.138;2022-08-21T08:41:26;11.10;;;5.20;;
4222;SDS011;2125;51.436;14.138;2022-08-21T08:43:58;7.47;;;5.00;;
4222;SDS011;2125;51.436;14.138;2022-08-21T08:46:29;12.03;;;4.93;;
4222;SDS011;2125;51.436;14.138;2022-08-21T08:49:02;9.23;;;5.70;;
4222;SDS011;2125;51.436;14.138;2022-08-21T08:51:45;9.50;;;5.40;;
4222;SDS011;2125;51.436;14.138;2022-08-21T08:54:18;9.17;;;4.80;;
4222;SDS011;2125;51.436;14.138;2022-08-21T08:56:59;12.17;;;5.50;;
4222;SDS011;2125;51.436;14.138;2022-08-21T08:59:33;9.90;;;5.80;;
4222;SDS011;2125;51.436;14.138;2022-08-21T09:02:07;9.23;;;5.20;;
4222;SDS011;2125;51.436;14.138;2022-08-21T09:04:37;9.00;;;4.07;;
4222;SDS011;2125;51.436;14.138;2022-08-21T09:07:12;14.20;;;4.00;;
4222;SDS011;2125;51.436;14.138;2022-08-21T09:09:52;7.10;;;3.90;;
4222;SDS011;2125;51.436;14.138;2022-08-21T09:12:47;9.60;;;4.83;;
4222;SDS011;2125;51.436;14.138;2022-08-21T09:15:21;10.33;;;4.13;;
4222;SDS011;2125;51.436;14.138;2022-08-21T09:20:59;9.27;;;3.70;;
4222;SDS011;2125;51.436;14.138;2022-08-21T09:23:45;6.67;;;3.60;;
4222;SDS011;2125;51.436;14.138;2022-08-21T09:29:15;6.30;;;3.17;;
4222;SDS011;2125;51.436;14.138;2022-08-21T09:31:46;5.80;;;2.80;;
4222;SDS011;2125;51.436;14.138;2022-08-21T09:34:23;6.67;;;3.00;;
4222;SDS011;2125;51.436;14.138;2022-08-21T09:36:51;8.10;;;3.13;;
4222;SDS011;2125;51.436;14.138;2022-08-21T09:39:22;7.10;;;2.93;;
4222;SDS011;2125;51.436;14.138;2022-08-21T09:41:55;8.00;;;2.70;;
4222;SDS011;2125;51.436;14.138;2022-08-21T09:44:24;7.67;;;3.20;;
4222;SDS011;2125;51.436;14.138;2022-08-21T09:46:52;5.97;;;3.50;;
4222;SDS011;2125;51.436;14.138;2022-08-21T09:49:27;6.10;;;2.90;;
4222;SDS011;2125;51.436;14.138;2022-08-21T09:51:55;6.30;;;3.33;;
4222;SDS011;2125;51.436;14.138;2022-08-21T09:54:24;4.83;;;2.83;;
4222;SDS011;2125;51.436;14.138;2022-08-21T09:56:56;6.60;;;2.93;;
4222;SDS011;2125;51.436;14.138;2022-08-21T09:59:41;9.63;;;2.60;;
4222;SDS011;2125;51.436;14.138;2022-08-21T10:02:21;7.47;;;2.40;;
4222;SDS011;2125;51.436;14.138;2022-08-21T10:04:57;14.40;;;3.23;;
4222;SDS011;2125;51.436;14.138;2022-08-21T10:07:25;3.80;;;2.30;;
4222;SDS011;2125;51.436;14.138;2022-08-21T10:10:00;4.10;;;2.50;;
4222;SDS011;2125;51.436;14.138;2022-08-21T10:12:31;3.50;;;2.10;;
4222;SDS011;2125;51.436;14.138;2022-08-21T10:15:07;9.20;;;2.87;;
4222;SDS011;2125;51.436;14.138;2022-08-21T10:17:43;9.73;;;2.83;;
4222;SDS011;2125;51.436;14.138;2022-08-21T10:20:19;5.77;;;2.60;;
4222;SDS011;2125;51.436;14.138;2022-08-21T10:22:51;6.70;;;2.30;;
4222;SDS011;2125;51.436;14.138;2022-08-21T10:25:28;5.80;;;2.60;;
4222;SDS011;2125;51.436;14.138;2022-08-21T10:27:59;3.70;;;2.33;;
4222;SDS011;2125;51.436;14.138;2022-08-21T10:30:35;6.50;;;2.37;;
4222;SDS011;2125;51.436;14.138;2022-08-21T10:33:08;4.90;;;2.37;;
4222;SDS011;2125;51.436;14.138;2022-08-21T10:35:44;7.60;;;2.20;;
4222;SDS011;2125;51.436;14.138;2022-08-21T10:38:41;3.90;;;2.47;;
4222;SDS011;2125;51.436;14.138;2022-08-21T10:41:21;8.63;;;2.90;;
4222;SDS011;2125;51.436;14.138;2022-08-21T10:43:59;7.27;;;2.80;;
4222;SDS011;2125;51.436;14.138;2022-08-21T10:46:36;3.50;;;2.33;;
4222;SDS011;2125;51.436;14.138;2022-08-21T10:49:14;7.10;;;2.77;;
4222;SDS011;2125;51.436;14.138;2022-08-21T10:54:19;3.67;;;2.30;;
4222;SDS011;2125;51.436;14.138;2022-08-21T10:56:56;7.77;;;2.20;;
4222;SDS011;2125;51.436;14.138;2022-08-21T10:59:28;5.07;;;2.00;;
4222;SDS011;2125;51.436;14.138;2022-08-21T11:02:17;2.00;;;1.73;;
4222;SDS011;2125;51.436;14.138;2022-08-21T11:04:49;4.83;;;2.30;;
4222;SDS011;2125;51.436;14.138;2022-08-21T11:07:22;3.47;;;1.83;;
4222;SDS011;2125;51.436;14.138;2022-08-21T11:10:05;5.63;;;2.10;;
4222;SDS011;2125;51.436;14.138;2022-08-21T11:12:39;7.87;;;2.80;;
4222;SDS011;2125;51.436;14.138;2022-08-21T11:15:23;4.27;;;2.33;;
4222;SDS011;2125;51.436;14.138;2022-08-21T11:17:57;3.90;;;2.00;;
4222;SDS011;2125;51.436;14.138;2022-08-21T11:20:31;8.00;;;1.97;;
4222;SDS011;2125;51.436;14.138;2022-08-21T11:23:05;4.10;;;1.73;;
4222;SDS011;2125;51.436;14.138;2022-08-21T11:25:40;4.77;;;2.03;;
4222;SDS011;2125;51.436;14.138;2022-08-21T11:28:16;3.70;;;1.70;;
4222;SDS011;2125;51.436;14.138;2022-08-21T11:30:51;6.30;;;1.83;;
4222;SDS011;2125;51.436;14.138;2022-08-21T11:33:27;8.90;;;2.23;;
4222;SDS011;2125;51.436;14.138;2022-08-21T11:36:06;4.97;;;2.30;;
4222;SDS011;2125;51.436;14.138;2022-08-21T11:38:39;8.50;;;2.30;;
4222;SDS011;2125;51.436;14.138;2022-08-21T11:41:13;5.00;;;2.13;;
4222;SDS011;2125;51.436;14.138;2022-08-21T11:43:46;4.13;;;2.13;;
4222;SDS011;2125;51.436;14.138;2022-08-21T11:46:20;9.53;;;2.40;;
4222;SDS011;2125;51.436;14.138;2022-08-21T11:48:58;8.97;;;2.00;;
4222;SDS011;2125;51.436;14.138;2022-08-21T11:51:32;5.20;;;2.00;;
4222;SDS011;2125;51.436;14.138;2022-08-21T11:54:04;5.53;;;2.30;;
4222;SDS011;2125;51.436;14.138;2022-08-21T11:56:38;5.00;;;1.97;;
4222;SDS011;2125;51.436;14.138;2022-08-21T11:59:18;6.90;;;2.50;;
4222;SDS011;2125;51.436;14.138;2022-08-21T12:01:50;3.43;;;2.00;;
4222;SDS011;2125;51.436;14.138;2022-08-21T12:04:22;5.30;;;2.20;;
4222;SDS011;2125;51.436;14.138;2022-08-21T12:07:10;3.90;;;2.40;;
4222;SDS011;2125;51.436;14.138;2022-08-21T12:09:38;3.07;;;2.10;;
4222;SDS011;2125;51.436;14.138;2022-08-21T12:12:10;8.13;;;2.20;;
4222;SDS011;2125;51.436;14.138;2022-08-21T12:14:40;3.33;;;1.90;;
4222;SDS011;2125;51.436;14.138;2022-08-21T12:17:16;2.90;;;1.73;;
4222;SDS011;2125;51.436;14.138;2022-08-21T12:19:45;4.93;;;2.60;;
4222;SDS011;2125;51.436;14.138;2022-08-21T12:22:23;4.27;;;1.83;;
4222;SDS011;2125;51.436;14.138;2022-08-21T12:25:03;5.93;;;2.30;;
4222;SDS011;2125;51.436;14.138;2022-08-21T12:27:45;6.37;;;1.97;;
4222;SDS011;2125;51.436;14.138;2022-08-21T12:30:20;4.50;;;1.90;;
4222;SDS011;2125;51.436;14.138;2022-08-21T12:32:57;7.10;;;2.37;;
4222;SDS011;2125;51.436;14.138;2022-08-21T12:35:27;5.10;;;2.40;;
4222;SDS011;2125;51.436;14.138;2022-08-21T12:38:04;4.90;;;2.27;;
4222;SDS011;2125;51.436;14.138;2022-08-21T12:40:37;4.80;;;2.77;;
4222;SDS011;2125;51.436;14.138;2022-08-21T12:43:13;5.70;;;2.47;;
4222;SDS011;2125;51.436;14.138;2022-08-21T12:45:56;4.43;;;1.87;;
4222;SDS011;2125;51.436;14.138;2022-08-21T12:48:33;5.00;;;2.57;;
4222;SDS011;2125;51.436;14.138;2022-08-21T12:51:08;4.83;;;2.20;;
4222;SDS011;2125;51.436;14.138;2022-08-21T12:53:39;7.73;;;2.40;;
4222;SDS011;2125;51.436;14.138;2022-08-21T12:56:22;5.50;;;3.07;;
4222;SDS011;2125;51.436;14.138;2022-08-21T12:58:53;5.73;;;2.50;;
4222;SDS011;2125;51.436;14.138;2022-08-21T13:01:22;4.70;;;2.30;;
4222;SDS011;2125;51.436;14.138;2022-08-21T13:03:54;4.23;;;2.33;;
4222;SDS011;2125;51.436;14.138;2022-08-21T13:06:23;8.33;;;2.60;;
4222;SDS011;2125;51.436;14.138;2022-08-21T13:08:51;4.87;;;2.60;;
4222;SDS011;2125;51.436;14.138;2022-08-21T13:11:22;3.33;;;2.30;;
4222;SDS011;2125;51.436;14.138;2022-08-21T13:13:51;5.63;;;2.60;;
4222;SDS011;2125;51.436;14.138;2022-08-21T13:16:21;6.37;;;2.47;;
4222;SDS011;2125;51.436;14.138;2022-08-21T13:18:53;3.73;;;2.50;;
4222;SDS011;2125;51.436;14.138;2022-08-21T13:21:33;5.60;;;2.67;;
4222;SDS011;2125;51.436;14.138;2022-08-21T13:24:12;4.40;;;2.10;;
4222;SDS011;2125;51.436;14.138;2022-08-21T13:26:42;2.60;;;2.17;;
4222;SDS011;2125;51.436;14.138;2022-08-21T13:29:11;7.03;;;3.07;;
4222;SDS011;2125;51.436;14.138;2022-08-21T13:31:46;3.90;;;2.23;;
4222;SDS011;2125;51.436;14.138;2022-08-21T13:34:21;4.30;;;2.13;;
4222;SDS011;2125;51.436;14.138;2022-08-21T13:36:51;11.63;;;2.47;;
4222;SDS011;2125;51.436;14.138;2022-08-21T13:39:20;3.30;;;2.10;;
4222;SDS011;2125;51.436;14.138;2022-08-21T13:41:49;3.67;;;2.17;;
4222;SDS011;2125;51.436;14.138;2022-08-21T13:44:20;3.47;;;2.20;;
4222;SDS011;2125;51.436;14.138;2022-08-21T13:46:51;4.10;;;2.20;;
4222;SDS011;2125;51.436;14.138;2022-08-21T13:49:20;3.73;;;2.63;;
4222;SDS011;2125;51.436;14.138;2022-08-21T13:51:52;7.00;;;2.33;;
4222;SDS011;2125;51.436;14.138;2022-08-21T13:54:22;3.53;;;2.40;;
4222;SDS011;2125;51.436;14.138;2022-08-21T13:56:51;6.57;;;2.27;;
4222;SDS011;2125;51.436;14.138;2022-08-21T13:59:26;5.50;;;2.40;;
4222;SDS011;2125;51.436;14.138;2022-08-21T14:01:55;3.83;;;2.07;;
4222;SDS011;2125;51.436;14.138;2022-08-21T14:04:25;5.00;;;1.70;;
4222;SDS011;2125;51.436;14.138;2022-08-21T14:06:59;5.43;;;2.40;;
4222;SDS011;2125;51.436;14.138;2022-08-21T14:09:30;4.00;;;1.90;;
4222;SDS011;2125;51.436;14.138;2022-08-21T14:12:00;3.57;;;2.00;;
4222;SDS011;2125;51.436;14.138;2022-08-21T14:14:31;3.50;;;2.27;;
4222;SDS011;2125;51.436;14.138;2022-08-21T14:17:02;3.93;;;2.30;;
4222;SDS011;2125;51.436;14.138;2022-08-21T14:19:35;5.53;;;2.43;;
4222;SDS011;2125;51.436;14.138;2022-08-21T14:24:49;4.73;;;2.30;;
4222;SDS011;2125;51.436;14.138;2022-08-21T14:27:25;4.53;;;2.47;;
4222;SDS011;2125;51.436;14.138;2022-08-21T14:29:56;2.20;;;1.60;;
4222;SDS011;2125;51.436;14.138;2022-08-21T14:32:25;3.33;;;2.03;;
4222;SDS011;2125;51.436;14.138;2022-08-21T14:34:55;5.90;;;1.83;;
4222;SDS011;2125;51.436;14.138;2022-08-21T14:37:23;3.07;;;2.33;;
4222;SDS011;2125;51.436;14.138;2022-08-21T14:39:50;5.50;;;2.50;;
4222;SDS011;2125;51.436;14.138;2022-08-21T14:42:17;6.77;;;2.30;;
4222;SDS011;2125;51.436;14.138;2022-08-21T14:44:43;6.87;;;2.30;;
4222;SDS011;2125;51.436;14.138;2022-08-21T14:47:12;4.67;;;2.50;;
4222;SDS011;2125;51.436;14.138;2022-08-21T14:49:38;5.57;;;2.10;;
4222;SDS011;2125;51.436;14.138;2022-08-21T14:52:05;4.53;;;1.87;;
4222;SDS011;2125;51.436;14.138;2022-08-21T14:54:32;6.57;;;2.07;;
4222;SDS011;2125;51.436;14.138;2022-08-21T14:57:07;4.53;;;2.50;;
4222;SDS011;2125;51.436;14.138;2022-08-21T14:59:37;4.27;;;2.07;;
4222;SDS011;2125;51.436;14.138;2022-08-21T15:02:04;4.30;;;2.33;;
4222;SDS011;2125;51.436;14.138;2022-08-21T15:04:33;4.47;;;2.40;;
4222;SDS011;2125;51.436;14.138;2022-08-21T15:07:00;7.07;;;2.70;;
4222;SDS011;2125;51.436;14.138;2022-08-21T15:09:27;4.33;;;2.17;;
4222;SDS011;2125;51.436;14.138;2022-08-21T15:11:55;3.10;;;2.20;;
4222;SDS011;2125;51.436;14.138;2022-08-21T15:14:25;3.90;;;2.13;;